sensor_id;sensor_type;location;lat;lon;timestamp;P1;durP1;ratioP1;P2;durP2;ratioP2
79173;SDS011;68599;49.142;9.124;2023-03-13T20:47:47;3.40;;;1.20;;
79173;SDS011;68599;49.142;9.124;2023-03-13T20:50:13;4.40;;;1.50;;
79173;SDS011;68599;49.142;9.124;2023-03-13T20:52:40;5.30;;;1.50;;
79173;SDS011;68599;49.142;9.124;2023-03-13T20:55:06;3.40;;;1.20;;
79173;SDS011;68599;49.142;9.124;2023-03-13T20:57:34;2.70;;;1.30;;
79173;SDS011;68599;49.142;9.124;2023-03-13T21:02:44;1.80;;;0.40;;
79173;SDS011;68599;49.142;9.124;2023-03-13T21:05:11;0.80;;;0.30;;
79173;SDS011;68599;49.142;9.124;2023-03-13T21:07:38;1.10;;;0.20;;
79173;SDS011;68599;49.142;9.124;2023-03-13T21:10:05;1.80;;;0.30;;
79173;SDS011;68599;49.142;9.124;2023-03-13T21:12:32;2.60;;;0.30;;
79173;SDS011;68599;49.142;9.124;2023-03-13T21:14:58;2.20;;;0.60;;
79173;SDS011;68599;49.142;9.124;2023-03-13T21:17:25;2.10;;;0.60;;
79173;SDS011;68599;49.142;9.124;2023-03-13T21:19:51;0.80;;;0.30;;
79173;SDS011;68599;49.142;9.124;2023-03-13T21:22:18;0.70;;;0.20;;
79173;SDS011;68599;49.142;9.124;2023-03-13T21:24:45;1.30;;;0.80;;
79173;SDS011;68599;49.142;9.124;2023-03-13T21:27:13;1.10;;;0.30;;
79173;SDS011;68599;49.142;9.124;2023-03-13T21:29:40;0.90;;;0.40;;
79173;SDS011;68599;49.142;9.124;2023-03-13T21:32:09;1.20;;;0.30;;
79173;SDS011;68599;49.142;9.124;2023-03-13T21:34:36;1.80;;;0.30;;
79173;SDS011;68599;49.142;9.124;2023-03-13T21:37:03;1.60;;;0.20;;
79173;SDS011;68599;49.142;9.124;2023-03-13T21:39:29;0.50;;;0.10;;
79173;SDS011;68599;49.142;9.124;2023-03-13T21:41:56;0.30;;;0.10;;
79173;SDS011;68599;49.142;9.124;2023-03-13T21:44:22;0.70;;;0.20;;
79173;SDS011;68599;49.142;9.124;2023-03-13T21:46:51;0.70;;;0.20;;
79173;SDS011;68599;49.142;9.124;2023-03-13T21:49:18;0.60;;;0.40;;
79173;SDS011;68599;49.142;9.124;2023-03-13T21:51:44;1.50;;;0.60;;
79173;SDS011;68599;49.142;9.124;2023-03-13T21:54:11;0.50;;;0.20;;
79173;SDS011;68599;49.142;9.124;2023-03-13T21:56:37;1.50;;;0.30;;
79173;SDS011;68599;49.142;9.124;2023-03-13T21:59:04;0.60;;;0.30;;
79173;SDS011;68599;49.142;9.124;2023-03-13T22:01:31;0.40;;;0.20;;
79173;SDS011;68599;49.142;9.124;2023-03-13T22:03:57;0.20;;;0.10;;
79173;SDS011;68599;49.142;9.124;2023-03-13T22:06:24;0.50;;;0.10;;
79173;SDS011;68599;49.142;9.124;2023-03-13T22:08:50;0.30;;;0.20;;
79173;SDS011;68599;49.142;9.124;2023-03-13T22:11:17;0.70;;;0.20;;
79173;SDS011;68599;49.142;9.124;2023-03-13T22:13:44;0.30;;;0.20;;
79173;SDS011;68599;49.142;9.124;2023-03-13T22:16:11;1.10;;;0.20;;
79173;SDS011;68599;49.142;9.124;2023-03-13T22:18:38;2.00;;;0.30;;
79173;SDS011;68599;49.142;9.124;2023-03-13T22:21:07;0.70;;;0.10;;
79173;SDS011;68599;49.142;9.124;2023-03-13T22:23:33;0.60;;;0.30;;
79173;SDS011;68599;49.142;9.124;2023-03-13T22:26:00;0.70;;;0.10;;
79173;SDS011;68599;49.142;9.124;2023-03-13T22:28:26;0.50;;;0.30;;
79173;SDS011;68599;49.142;9.124;2023-03-13T22:30:53;0.60;;;0.20;;
79173;SDS011;68599;49.142;9.124;2023-03-13T22:33:20;0.40;;;0.20;;
79173;SDS011;68599;49.142;9.124;2023-03-13T22:35:48;0.20;;;0.10;;
79173;SDS011;68599;49.142;9.124;2023-03-13T22:38:18;0.80;;;0.30;;
79173;SDS011;68599;49.142;9.124;2023-03-13T22:40:46;0.40;;;0.10;;
79173;SDS011;68599;49.142;9.124;2023-03-13T22:43:13;0.50;;;0.30;;
79173;SDS011;68599;49.142;9.124;2023-03-13T22:45:40;0.30;;;0.10;;
79173;SDS011;68599;49.142;9.124;2023-03-13T22:48:06;0.50;;;0.20;;
79173;SDS011;68599;49.142;9.124;2023-03-13T22:50:33;0.20;;;0.10;;
79173;SDS011;68599;49.142;9.124;2023-03-13T22:53:00;0.80;;;0.30;;
79173;SDS011;68599;49.142;9.124;2023-03-13T22:55:28;1.00;;;0.20;;
79173;SDS011;68599;49.142;9.124;2023-03-13T22:57:54;1.10;;;0.30;;
79173;SDS011;68599;49.142;9.124;2023-03-13T23:00:21;0.40;;;0.20;;
79173;SDS011;68599;49.142;9.124;2023-03-13T23:02:47;0.50;;;0.30;;
79173;SDS011;68599;49.142;9.124;2023-03-13T23:05:14;0.60;;;0.20;;
79173;SDS011;68599;49.142;9.124;2023-03-13T23:07:41;0.40;;;0.10;;
79173;SDS011;68599;49.142;9.124;2023-03-13T23:10:08;0.80;;;0.20;;
79173;SDS011;68599;49.142;9.124;2023-03-13T23:12:35;0.50;;;0.20;;
79173;SDS011;68599;49.142;9.124;2023-03-13T23:15:02;0.30;;;0.10;;
79173;SDS011;68599;49.142;9.124;2023-03-13T23:17:30;0.20;;;0.10;;
79173;SDS011;68599;49.142;9.124;2023-03-13T23:19:57;0.40;;;0.10;;
79173;SDS011;68599;49.142;9.124;2023-03-13T23:22:26;1.30;;;0.10;;
79173;SDS011;68599;49.142;9.124;2023-03-13T23:24:54;0.50;;;0.20;;
79173;SDS011;68599;49.142;9.124;2023-03-13T23:27:21;0.10;;;0.10;;
79173;SDS011;68599;49.142;9.124;2023-03-13T23:29:47;0.00;;;0.00;;
79173;SDS011;68599;49.142;9.124;2023-03-13T23:32:14;0.30;;;0.10;;
79173;SDS011;68599;49.142;9.124;2023-03-13T23:34:40;1.10;;;0.10;;
79173;SDS011;68599;49.142;9.124;2023-03-13T23:37:07;0.30;;;0.10;;
79173;SDS011;68599;49.142;9.124;2023-03-13T23:39:33;0.30;;;0.10;;
79173;SDS011;68599;49.142;9.124;2023-03-13T23:41:59;0.20;;;0.10;;
79173;SDS011;68599;49.142;9.124;2023-03-13T23:44:28;0.30;;;0.10;;
79173;SDS011;68599;49.142;9.124;2023-03-13T23:46:56;1.50;;;0.20;;
79173;SDS011;68599;49.142;9.124;2023-03-13T23:49:22;0.30;;;0.10;;
79173;SDS011;68599;49.142;9.124;2023-03-13T23:51:49;0.30;;;0.10;;
79173;SDS011;68599;49.142;9.124;2023-03-13T23:54:15;0.30;;;0.10;;
79173;SDS011;68599;49.142;9.124;2023-03-13T23:56:41;0.30;;;0.10;;
79173;SDS011;68599;49.142;9.124;2023-03-13T23:59:08;0.50;;;0.20;;
